Main page
METAR-TAF:

METAR-TAF

Airports :

Port Said Airport

Port Said, Egypt

latitude: 31-16N, longitude: 032-18E, elevation: 6 m

Current weather observation

The report was made 1 hour and 8 minutes ago, at 18:00 UTC
Wind 11 kt from the Northwest
Temperature 27°C
Humidity 66%
Pressure 1012 hPa
Visibility 10 km or more
Scattered clouds at a height of 2500 ft

METAR: HEPS 161800Z 32011KT 9999 SCT025 27/20 Q1012 NOSIG

Time: 21:08 (19:08 UTC)

Forecast

The report was made 2 hours and 8 minutes ago, at 17:00 UTC
Forecast valid from 16 at 18 UTC to 17 at 24 UTC
Wind 12 kt from the North/Northwest
Visibility 10 km or more
Scattered clouds at a height of 2500 ft

TAF: HEPS 161700Z 1618/1724 33012KT 9999 SCT025

Weather observations and forecasts of more than 4000 airports (METAR and TAF reports).

The available stations are represented by yellow and red dots on the map.

Hover mouse over dot to see the name of the station.

Then click to see weather observations and forecasts.

To change the map : click on the green buttons with a black cross to zoom in, on the green button with a dash to zoom out, or on the green arrows for adjacent maps.


METAR-TAF: